sensor_id;sensor_type;location;lat;lon;timestamp;P1;durP1;ratioP1;P2;durP2;ratioP2
47413;SDS011;33163;0.000;0.000;2023-09-08T00:00:57;7.30;;;5.38;;
47413;SDS011;33163;0.000;0.000;2023-09-08T00:03:25;8.02;;;5.35;;
47413;SDS011;33163;0.000;0.000;2023-09-08T00:05:51;7.43;;;5.28;;
47413;SDS011;33163;0.000;0.000;2023-09-08T00:08:18;8.25;;;5.95;;
47413;SDS011;33163;0.000;0.000;2023-09-08T00:10:45;8.35;;;5.30;;
47413;SDS011;33163;0.000;0.000;2023-09-08T00:13:12;7.85;;;5.63;;
47413;SDS011;33163;0.000;0.000;2023-09-08T00:15:39;8.35;;;5.32;;
47413;SDS011;33163;0.000;0.000;2023-09-08T00:18:05;7.60;;;5.35;;
47413;SDS011;33163;0.000;0.000;2023-09-08T00:20:34;6.85;;;5.22;;
47413;SDS011;33163;0.000;0.000;2023-09-08T00:23:01;7.68;;;5.25;;
47413;SDS011;33163;0.000;0.000;2023-09-08T00:25:27;6.05;;;5.43;;
47413;SDS011;33163;0.000;0.000;2023-09-08T00:27:54;8.07;;;5.07;;
47413;SDS011;33163;0.000;0.000;2023-09-08T00:30:21;5.97;;;5.13;;
47413;SDS011;33163;0.000;0.000;2023-09-08T00:32:48;7.57;;;4.95;;
47413;SDS011;33163;0.000;0.000;2023-09-08T00:35:14;6.10;;;5.30;;
47413;SDS011;33163;0.000;0.000;2023-09-08T00:37:42;10.00;;;5.25;;
47413;SDS011;33163;0.000;0.000;2023-09-08T00:40:09;7.65;;;5.25;;
47413;SDS011;33163;0.000;0.000;2023-09-08T00:42:36;8.68;;;5.03;;
47413;SDS011;33163;0.000;0.000;2023-09-08T00:45:03;7.32;;;5.35;;
47413;SDS011;33163;0.000;0.000;2023-09-08T00:47:30;7.95;;;5.13;;
47413;SDS011;33163;0.000;0.000;2023-09-08T00:49:57;6.55;;;5.22;;
47413;SDS011;33163;0.000;0.000;2023-09-08T00:52:24;6.50;;;4.97;;
47413;SDS011;33163;0.000;0.000;2023-09-08T00:54:57;12.73;;;5.10;;
47413;SDS011;33163;0.000;0.000;2023-09-08T00:57:24;6.97;;;5.22;;
47413;SDS011;33163;0.000;0.000;2023-09-08T00:59:52;5.70;;;5.10;;
47413;SDS011;33163;0.000;0.000;2023-09-08T01:02:20;7.30;;;5.32;;
47413;SDS011;33163;0.000;0.000;2023-09-08T01:04:47;6.00;;;5.38;;
47413;SDS011;33163;0.000;0.000;2023-09-08T01:07:15;7.70;;;5.30;;
47413;SDS011;33163;0.000;0.000;2023-09-08T01:09:42;6.05;;;5.22;;
47413;SDS011;33163;0.000;0.000;2023-09-08T01:12:10;9.80;;;5.30;;
47413;SDS011;33163;0.000;0.000;2023-09-08T01:14:37;5.80;;;5.20;;
47413;SDS011;33163;0.000;0.000;2023-09-08T01:17:04;5.60;;;4.82;;
47413;SDS011;33163;0.000;0.000;2023-09-08T01:19:31;8.18;;;5.13;;
47413;SDS011;33163;0.000;0.000;2023-09-08T01:22:11;7.50;;;5.10;;
47413;SDS011;33163;0.000;0.000;2023-09-08T01:25:08;8.63;;;4.82;;
47413;SDS011;33163;0.000;0.000;2023-09-08T01:27:40;6.68;;;5.35;;
47413;SDS011;33163;0.000;0.000;2023-09-08T01:30:11;5.28;;;4.68;;
47413;SDS011;33163;0.000;0.000;2023-09-08T01:32:40;6.53;;;4.78;;
47413;SDS011;33163;0.000;0.000;2023-09-08T01:35:07;9.05;;;4.68;;
47413;SDS011;33163;0.000;0.000;2023-09-08T01:37:35;7.72;;;5.43;;
47413;SDS011;33163;0.000;0.000;2023-09-08T01:40:02;7.05;;;4.65;;
47413;SDS011;33163;0.000;0.000;2023-09-08T01:42:30;7.03;;;4.95;;
47413;SDS011;33163;0.000;0.000;2023-09-08T01:44:57;5.72;;;4.60;;
47413;SDS011;33163;0.000;0.000;2023-09-08T01:47:24;6.60;;;5.05;;
47413;SDS011;33163;0.000;0.000;2023-09-08T01:49:51;6.68;;;4.97;;
47413;SDS011;33163;0.000;0.000;2023-09-08T01:52:18;7.18;;;5.47;;
47413;SDS011;33163;0.000;0.000;2023-09-08T01:54:45;7.47;;;5.10;;
47413;SDS011;33163;0.000;0.000;2023-09-08T01:57:12;6.38;;;5.05;;
47413;SDS011;33163;0.000;0.000;2023-09-08T01:59:40;6.15;;;4.90;;
47413;SDS011;33163;0.000;0.000;2023-09-08T02:02:06;6.20;;;4.68;;
47413;SDS011;33163;0.000;0.000;2023-09-08T02:04:33;5.20;;;4.45;;
47413;SDS011;33163;0.000;0.000;2023-09-08T02:07:00;5.82;;;4.60;;
47413;SDS011;33163;0.000;0.000;2023-09-08T02:09:31;6.05;;;4.65;;
47413;SDS011;33163;0.000;0.000;2023-09-08T02:11:59;6.25;;;5.32;;
47413;SDS011;33163;0.000;0.000;2023-09-08T02:14:26;6.20;;;4.75;;
47413;SDS011;33163;0.000;0.000;2023-09-08T02:16:55;8.30;;;5.07;;
47413;SDS011;33163;0.000;0.000;2023-09-08T02:19:22;6.13;;;4.78;;
47413;SDS011;33163;0.000;0.000;2023-09-08T02:21:49;7.28;;;5.63;;
47413;SDS011;33163;0.000;0.000;2023-09-08T02:24:16;7.47;;;4.90;;
47413;SDS011;33163;0.000;0.000;2023-09-08T02:26:42;5.88;;;4.85;;
47413;SDS011;33163;0.000;0.000;2023-09-08T02:29:09;5.65;;;5.03;;
47413;SDS011;33163;0.000;0.000;2023-09-08T02:31:36;7.88;;;4.82;;
47413;SDS011;33163;0.000;0.000;2023-09-08T02:34:04;9.80;;;5.47;;
47413;SDS011;33163;0.000;0.000;2023-09-08T02:36:31;6.47;;;5.22;;
47413;SDS011;33163;0.000;0.000;2023-09-08T02:38:57;5.55;;;4.18;;
47413;SDS011;33163;0.000;0.000;2023-09-08T02:41:24;6.60;;;4.47;;
47413;SDS011;33163;0.000;0.000;2023-09-08T02:43:51;7.05;;;4.90;;
47413;SDS011;33163;0.000;0.000;2023-09-08T02:46:18;6.82;;;5.47;;
47413;SDS011;33163;0.000;0.000;2023-09-08T02:48:45;5.65;;;4.65;;
47413;SDS011;33163;0.000;0.000;2023-09-08T02:51:13;5.57;;;4.57;;
47413;SDS011;33163;0.000;0.000;2023-09-08T02:53:40;7.63;;;4.80;;
47413;SDS011;33163;0.000;0.000;2023-09-08T02:56:07;5.43;;;4.78;;
47413;SDS011;33163;0.000;0.000;2023-09-08T02:58:34;7.22;;;5.18;;
47413;SDS011;33163;0.000;0.000;2023-09-08T03:01:11;5.95;;;4.53;;
47413;SDS011;33163;0.000;0.000;2023-09-08T03:03:39;6.88;;;5.60;;
47413;SDS011;33163;0.000;0.000;2023-09-08T03:06:06;6.07;;;4.90;;
47413;SDS011;33163;0.000;0.000;2023-09-08T03:08:34;5.88;;;4.93;;
47413;SDS011;33163;0.000;0.000;2023-09-08T03:11:02;6.90;;;4.72;;
47413;SDS011;33163;0.000;0.000;2023-09-08T03:13:30;7.60;;;5.03;;
47413;SDS011;33163;0.000;0.000;2023-09-08T03:15:57;7.20;;;5.43;;
47413;SDS011;33163;0.000;0.000;2023-09-08T03:18:28;5.25;;;4.70;;
47413;SDS011;33163;0.000;0.000;2023-09-08T03:20:55;5.40;;;4.88;;
47413;SDS011;33163;0.000;0.000;2023-09-08T03:23:22;6.30;;;4.72;;
47413;SDS011;33163;0.000;0.000;2023-09-08T03:25:50;5.28;;;4.70;;
47413;SDS011;33163;0.000;0.000;2023-09-08T03:28:16;6.28;;;5.13;;
47413;SDS011;33163;0.000;0.000;2023-09-08T03:30:43;6.13;;;4.80;;
47413;SDS011;33163;0.000;0.000;2023-09-08T03:33:10;8.65;;;5.18;;
47413;SDS011;33163;0.000;0.000;2023-09-08T03:35:37;10.77;;;5.78;;
47413;SDS011;33163;0.000;0.000;2023-09-08T03:38:04;8.48;;;5.65;;
47413;SDS011;33163;0.000;0.000;2023-09-08T03:40:30;4.95;;;4.35;;
47413;SDS011;33163;0.000;0.000;2023-09-08T03:42:58;7.22;;;5.07;;
47413;SDS011;33163;0.000;0.000;2023-09-08T03:45:25;5.70;;;4.97;;
47413;SDS011;33163;0.000;0.000;2023-09-08T03:47:52;5.47;;;4.82;;
47413;SDS011;33163;0.000;0.000;2023-09-08T03:50:19;6.18;;;5.25;;
47413;SDS011;33163;0.000;0.000;2023-09-08T03:52:45;5.22;;;4.70;;
47413;SDS011;33163;0.000;0.000;2023-09-08T03:55:12;6.15;;;4.97;;
47413;SDS011;33163;0.000;0.000;2023-09-08T03:57:39;5.50;;;4.95;;
47413;SDS011;33163;0.000;0.000;2023-09-08T04:00:08;7.40;;;5.00;;
47413;SDS011;33163;0.000;0.000;2023-09-08T04:02:36;5.35;;;4.47;;
47413;SDS011;33163;0.000;0.000;2023-09-08T04:05:03;6.35;;;4.90;;
47413;SDS011;33163;0.000;0.000;2023-09-08T04:07:31;6.45;;;5.20;;
47413;SDS011;33163;0.000;0.000;2023-09-08T04:09:57;6.25;;;4.97;;
47413;SDS011;33163;0.000;0.000;2023-09-08T04:12:24;5.50;;;5.00;;
47413;SDS011;33163;0.000;0.000;2023-09-08T04:14:51;6.28;;;4.97;;
47413;SDS011;33163;0.000;0.000;2023-09-08T04:17:19;5.25;;;4.75;;
47413;SDS011;33163;0.000;0.000;2023-09-08T04:19:46;6.25;;;4.97;;
47413;SDS011;33163;0.000;0.000;2023-09-08T04:22:13;6.22;;;5.10;;
47413;SDS011;33163;0.000;0.000;2023-09-08T04:24:39;6.38;;;4.68;;
47413;SDS011;33163;0.000;0.000;2023-09-08T04:27:06;5.28;;;4.70;;
47413;SDS011;33163;0.000;0.000;2023-09-08T04:29:34;5.30;;;4.43;;
47413;SDS011;33163;0.000;0.000;2023-09-08T04:32:00;6.38;;;4.70;;
47413;SDS011;33163;0.000;0.000;2023-09-08T04:34:35;5.43;;;4.38;;
47413;SDS011;33163;0.000;0.000;2023-09-08T04:37:03;6.38;;;4.85;;
47413;SDS011;33163;0.000;0.000;2023-09-08T04:39:29;6.13;;;4.63;;
47413;SDS011;33163;0.000;0.000;2023-09-08T04:41:56;4.82;;;4.38;;
47413;SDS011;33163;0.000;0.000;2023-09-08T04:44:23;9.57;;;4.78;;
47413;SDS011;33163;0.000;0.000;2023-09-08T04:46:50;6.25;;;4.68;;
47413;SDS011;33163;0.000;0.000;2023-09-08T04:49:17;5.20;;;4.18;;
47413;SDS011;33163;0.000;0.000;2023-09-08T04:51:45;5.50;;;4.55;;
47413;SDS011;33163;0.000;0.000;2023-09-08T04:54:12;5.30;;;4.80;;
47413;SDS011;33163;0.000;0.000;2023-09-08T04:56:39;7.10;;;4.63;;
47413;SDS011;33163;0.000;0.000;2023-09-08T04:59:06;4.90;;;4.00;;
47413;SDS011;33163;0.000;0.000;2023-09-08T05:01:32;5.25;;;4.70;;
47413;SDS011;33163;0.000;0.000;2023-09-08T05:04:02;5.53;;;4.85;;
47413;SDS011;33163;0.000;0.000;2023-09-08T05:06:29;4.95;;;4.40;;
47413;SDS011;33163;0.000;0.000;2023-09-08T05:08:57;7.68;;;5.10;;
47413;SDS011;33163;0.000;0.000;2023-09-08T05:11:25;6.13;;;4.85;;
47413;SDS011;33163;0.000;0.000;2023-09-08T05:13:52;5.25;;;4.75;;
47413;SDS011;33163;0.000;0.000;2023-09-08T05:16:19;6.05;;;5.30;;
47413;SDS011;33163;0.000;0.000;2023-09-08T05:19:01;5.85;;;4.63;;
47413;SDS011;33163;0.000;0.000;2023-09-08T05:21:28;5.30;;;4.72;;
47413;SDS011;33163;0.000;0.000;2023-09-08T05:23:54;5.60;;;4.40;;
47413;SDS011;33163;0.000;0.000;2023-09-08T05:26:23;6.03;;;5.20;;
47413;SDS011;33163;0.000;0.000;2023-09-08T05:28:49;7.88;;;4.82;;
47413;SDS011;33163;0.000;0.000;2023-09-08T05:31:16;5.88;;;4.90;;
47413;SDS011;33163;0.000;0.000;2023-09-08T05:33:43;4.90;;;4.32;;
47413;SDS011;33163;0.000;0.000;2023-09-08T05:36:10;4.93;;;4.22;;
47413;SDS011;33163;0.000;0.000;2023-09-08T05:38:36;6.50;;;4.80;;
47413;SDS011;33163;0.000;0.000;2023-09-08T05:41:03;5.97;;;5.03;;
47413;SDS011;33163;0.000;0.000;2023-09-08T05:43:31;6.60;;;5.13;;
47413;SDS011;33163;0.000;0.000;2023-09-08T05:45:58;10.18;;;5.35;;
47413;SDS011;33163;0.000;0.000;2023-09-08T05:48:25;9.93;;;4.97;;
47413;SDS011;33163;0.000;0.000;2023-09-08T05:50:51;8.15;;;5.07;;
47413;SDS011;33163;0.000;0.000;2023-09-08T05:53:18;8.55;;;5.70;;
47413;SDS011;33163;0.000;0.000;2023-09-08T05:55:45;6.57;;;5.13;;
47413;SDS011;33163;0.000;0.000;2023-09-08T05:58:12;8.75;;;5.22;;
47413;SDS011;33163;0.000;0.000;2023-09-08T06:00:40;7.28;;;4.90;;
47413;SDS011;33163;0.000;0.000;2023-09-08T06:03:07;6.38;;;5.40;;
47413;SDS011;33163;0.000;0.000;2023-09-08T06:05:34;16.17;;;9.70;;
47413;SDS011;33163;0.000;0.000;2023-09-08T06:08:00;16.27;;;12.65;;
47413;SDS011;33163;0.000;0.000;2023-09-08T06:10:27;24.83;;;13.35;;
47413;SDS011;33163;0.000;0.000;2023-09-08T06:12:55;20.08;;;14.73;;
47413;SDS011;33163;0.000;0.000;2023-09-08T06:15:22;19.42;;;13.95;;
47413;SDS011;33163;0.000;0.000;2023-09-08T06:17:50;21.38;;;14.45;;
47413;SDS011;33163;0.000;0.000;2023-09-08T06:20:17;22.02;;;14.15;;
47413;SDS011;33163;0.000;0.000;2023-09-08T06:22:44;19.65;;;15.40;;
47413;SDS011;33163;0.000;0.000;2023-09-08T06:25:10;22.08;;;14.80;;
47413;SDS011;33163;0.000;0.000;2023-09-08T06:27:37;20.30;;;15.15;;
47413;SDS011;33163;0.000;0.000;2023-09-08T06:30:05;27.38;;;15.55;;
47413;SDS011;33163;0.000;0.000;2023-09-08T06:32:32;23.45;;;15.13;;
47413;SDS011;33163;0.000;0.000;2023-09-08T06:35:00;22.80;;;15.93;;
47413;SDS011;33163;0.000;0.000;2023-09-08T06:37:27;24.15;;;14.77;;
47413;SDS011;33163;0.000;0.000;2023-09-08T06:39:55;24.10;;;15.88;;
47413;SDS011;33163;0.000;0.000;2023-09-08T06:42:21;23.92;;;14.82;;
47413;SDS011;33163;0.000;0.000;2023-09-08T06:44:48;20.90;;;15.20;;
47413;SDS011;33163;0.000;0.000;2023-09-08T06:47:15;21.08;;;15.02;;
47413;SDS011;33163;0.000;0.000;2023-09-08T06:49:42;22.95;;;14.93;;
47413;SDS011;33163;0.000;0.000;2023-09-08T06:52:10;23.48;;;16.75;;
47413;SDS011;33163;0.000;0.000;2023-09-08T06:54:36;23.38;;;15.85;;
47413;SDS011;33163;0.000;0.000;2023-09-08T06:57:03;31.05;;;16.90;;
47413;SDS011;33163;0.000;0.000;2023-09-08T06:59:30;26.10;;;16.48;;
47413;SDS011;33163;0.000;0.000;2023-09-08T07:01:57;25.75;;;15.77;;
47413;SDS011;33163;0.000;0.000;2023-09-08T07:04:24;23.80;;;15.50;;
47413;SDS011;33163;0.000;0.000;2023-09-08T07:06:50;25.20;;;16.40;;
47413;SDS011;33163;0.000;0.000;2023-09-08T07:09:20;27.20;;;15.52;;
47413;SDS011;33163;0.000;0.000;2023-09-08T07:11:47;26.08;;;14.90;;
47413;SDS011;33163;0.000;0.000;2023-09-08T07:14:14;20.48;;;15.20;;
47413;SDS011;33163;0.000;0.000;2023-09-08T07:16:41;20.65;;;15.13;;
47413;SDS011;33163;0.000;0.000;2023-09-08T07:19:08;28.98;;;16.13;;
47413;SDS011;33163;0.000;0.000;2023-09-08T07:21:34;23.90;;;15.48;;
47413;SDS011;33163;0.000;0.000;2023-09-08T07:24:01;22.02;;;14.50;;
47413;SDS011;33163;0.000;0.000;2023-09-08T07:26:29;23.98;;;13.77;;
47413;SDS011;33163;0.000;0.000;2023-09-08T07:28:56;25.73;;;12.48;;
47413;SDS011;33163;0.000;0.000;2023-09-08T07:31:23;20.90;;;13.07;;
47413;SDS011;33163;0.000;0.000;2023-09-08T07:33:49;18.27;;;12.85;;
47413;SDS011;33163;0.000;0.000;2023-09-08T07:36:16;16.92;;;12.18;;
47413;SDS011;33163;0.000;0.000;2023-09-08T07:38:43;20.98;;;11.88;;
47413;SDS011;33163;0.000;0.000;2023-09-08T07:41:10;17.40;;;11.13;;
47413;SDS011;33163;0.000;0.000;2023-09-08T07:43:38;16.80;;;11.23;;
47413;SDS011;33163;0.000;0.000;2023-09-08T07:46:05;17.58;;;10.85;;
47413;SDS011;33163;0.000;0.000;2023-09-08T07:48:32;18.27;;;11.18;;
47413;SDS011;33163;0.000;0.000;2023-09-08T07:50:59;21.05;;;10.65;;
47413;SDS011;33163;0.000;0.000;2023-09-08T07:53:26;15.45;;;9.27;;
47413;SDS011;33163;0.000;0.000;2023-09-08T07:55:53;18.45;;;9.52;;
47413;SDS011;33163;0.000;0.000;2023-09-08T07:58:21;20.90;;;10.02;;
47413;SDS011;33163;0.000;0.000;2023-09-08T08:00:49;25.38;;;9.68;;
47413;SDS011;33163;0.000;0.000;2023-09-08T08:03:16;14.13;;;8.15;;
47413;SDS011;33163;0.000;0.000;2023-09-08T08:05:43;18.38;;;9.40;;
47413;SDS011;33163;0.000;0.000;2023-09-08T08:08:09;12.30;;;8.75;;
47413;SDS011;33163;0.000;0.000;2023-09-08T08:10:36;19.13;;;8.82;;
47413;SDS011;33163;0.000;0.000;2023-09-08T08:13:03;14.07;;;7.97;;
47413;SDS011;33163;0.000;0.000;2023-09-08T08:15:36;15.63;;;8.77;;
47413;SDS011;33163;0.000;0.000;2023-09-08T08:18:05;12.27;;;7.50;;
47413;SDS011;33163;0.000;0.000;2023-09-08T08:20:32;17.17;;;9.75;;
47413;SDS011;33163;0.000;0.000;2023-09-08T08:23:00;16.88;;;8.70;;
47413;SDS011;33163;0.000;0.000;2023-09-08T08:25:27;14.02;;;8.40;;
47413;SDS011;33163;0.000;0.000;2023-09-08T08:27:54;15.18;;;8.77;;
47413;SDS011;33163;0.000;0.000;2023-09-08T08:30:23;14.20;;;8.35;;
47413;SDS011;33163;0.000;0.000;2023-09-08T08:32:50;22.75;;;8.68;;
47413;SDS011;33163;0.000;0.000;2023-09-08T08:35:19;14.35;;;7.78;;
47413;SDS011;33163;0.000;0.000;2023-09-08T08:37:46;13.85;;;7.90;;
47413;SDS011;33163;0.000;0.000;2023-09-08T08:40:13;16.75;;;7.75;;
47413;SDS011;33163;0.000;0.000;2023-09-08T08:42:40;12.75;;;7.97;;
47413;SDS011;33163;0.000;0.000;2023-09-08T08:45:08;8.55;;;6.47;;
47413;SDS011;33163;0.000;0.000;2023-09-08T08:47:35;10.27;;;7.00;;
47413;SDS011;33163;0.000;0.000;2023-09-08T08:50:02;11.05;;;7.10;;
47413;SDS011;33163;0.000;0.000;2023-09-08T08:52:31;13.65;;;7.50;;
47413;SDS011;33163;0.000;0.000;2023-09-08T08:54:59;11.65;;;7.43;;
47413;SDS011;33163;0.000;0.000;2023-09-08T08:57:26;12.23;;;7.57;;
47413;SDS011;33163;0.000;0.000;2023-09-08T08:59:53;14.55;;;6.18;;
47413;SDS011;33163;0.000;0.000;2023-09-08T09:02:20;9.55;;;6.90;;
47413;SDS011;33163;0.000;0.000;2023-09-08T09:04:48;15.85;;;6.90;;
47413;SDS011;33163;0.000;0.000;2023-09-08T09:07:15;13.15;;;6.03;;
47413;SDS011;33163;0.000;0.000;2023-09-08T09:09:46;13.23;;;7.05;;
47413;SDS011;33163;0.000;0.000;2023-09-08T09:12:13;11.88;;;6.53;;
47413;SDS011;33163;0.000;0.000;2023-09-08T09:14:44;11.82;;;6.35;;
47413;SDS011;33163;0.000;0.000;2023-09-08T09:17:13;7.75;;;5.55;;
47413;SDS011;33163;0.000;0.000;2023-09-08T09:19:40;8.82;;;6.03;;
47413;SDS011;33163;0.000;0.000;2023-09-08T09:22:06;11.63;;;5.55;;
47413;SDS011;33163;0.000;0.000;2023-09-08T09:24:34;9.00;;;5.82;;
47413;SDS011;33163;0.000;0.000;2023-09-08T09:27:07;10.00;;;6.82;;
47413;SDS011;33163;0.000;0.000;2023-09-08T09:29:34;8.45;;;5.53;;
47413;SDS011;33163;0.000;0.000;2023-09-08T09:32:11;12.60;;;5.85;;
47413;SDS011;33163;0.000;0.000;2023-09-08T09:34:44;17.77;;;6.60;;
47413;SDS011;33163;0.000;0.000;2023-09-08T09:37:14;9.30;;;5.65;;
47413;SDS011;33163;0.000;0.000;2023-09-08T09:39:40;10.15;;;6.28;;
47413;SDS011;33163;0.000;0.000;2023-09-08T09:42:09;11.68;;;6.80;;
47413;SDS011;33163;0.000;0.000;2023-09-08T09:44:35;10.02;;;5.63;;
47413;SDS011;33163;0.000;0.000;2023-09-08T09:47:02;9.77;;;5.03;;
47413;SDS011;33163;0.000;0.000;2023-09-08T09:49:30;8.55;;;5.97;;
47413;SDS011;33163;0.000;0.000;2023-09-08T09:51:57;8.10;;;5.47;;
47413;SDS011;33163;0.000;0.000;2023-09-08T09:54:24;8.18;;;5.22;;
47413;SDS011;33163;0.000;0.000;2023-09-08T09:56:51;8.63;;;5.70;;
47413;SDS011;33163;0.000;0.000;2023-09-08T09:59:20;8.75;;;5.70;;
47413;SDS011;33163;0.000;0.000;2023-09-08T10:01:48;10.00;;;5.40;;
47413;SDS011;33163;0.000;0.000;2023-09-08T10:04:15;8.25;;;5.70;;
47413;SDS011;33163;0.000;0.000;2023-09-08T10:06:43;9.80;;;4.95;;
47413;SDS011;33163;0.000;0.000;2023-09-08T10:09:11;10.20;;;5.65;;
47413;SDS011;33163;0.000;0.000;2023-09-08T10:11:44;7.38;;;4.93;;
47413;SDS011;33163;0.000;0.000;2023-09-08T10:14:13;7.68;;;5.72;;
47413;SDS011;33163;0.000;0.000;2023-09-08T10:16:43;11.45;;;5.32;;
47413;SDS011;33163;0.000;0.000;2023-09-08T10:19:14;11.48;;;5.35;;
47413;SDS011;33163;0.000;0.000;2023-09-08T10:21:42;9.55;;;5.15;;
47413;SDS011;33163;0.000;0.000;2023-09-08T10:24:13;8.48;;;5.07;;
47413;SDS011;33163;0.000;0.000;2023-09-08T10:26:43;6.00;;;4.75;;
47413;SDS011;33163;0.000;0.000;2023-09-08T10:29:22;7.18;;;4.63;;
47413;SDS011;33163;0.000;0.000;2023-09-08T10:31:50;9.18;;;5.10;;
47413;SDS011;33163;0.000;0.000;2023-09-08T10:34:17;8.00;;;5.43;;
47413;SDS011;33163;0.000;0.000;2023-09-08T10:36:44;8.00;;;4.93;;
47413;SDS011;33163;0.000;0.000;2023-09-08T10:39:30;8.43;;;5.13;;
47413;SDS011;33163;0.000;0.000;2023-09-08T10:44:57;5.82;;;5.00;;
47413;SDS011;33163;0.000;0.000;2023-09-08T10:47:30;6.28;;;4.80;;
47413;SDS011;33163;0.000;0.000;2023-09-08T10:49:59;6.43;;;4.93;;
47413;SDS011;33163;0.000;0.000;2023-09-08T10:52:25;7.82;;;4.72;;
47413;SDS011;33163;0.000;0.000;2023-09-08T10:54:53;7.32;;;5.13;;
47413;SDS011;33163;0.000;0.000;2023-09-08T10:57:21;6.35;;;5.05;;
47413;SDS011;33163;0.000;0.000;2023-09-08T10:59:51;5.82;;;4.90;;
47413;SDS011;33163;0.000;0.000;2023-09-08T11:02:36;7.55;;;5.00;;
47413;SDS011;33163;0.000;0.000;2023-09-08T11:05:04;6.05;;;4.85;;
47413;SDS011;33163;0.000;0.000;2023-09-08T11:07:34;9.02;;;4.28;;
47413;SDS011;33163;0.000;0.000;2023-09-08T11:10:02;6.13;;;4.90;;
47413;SDS011;33163;0.000;0.000;2023-09-08T11:12:29;7.38;;;4.57;;
47413;SDS011;33163;0.000;0.000;2023-09-08T11:14:57;7.25;;;4.68;;
47413;SDS011;33163;0.000;0.000;2023-09-08T11:17:26;6.75;;;4.43;;
47413;SDS011;33163;0.000;0.000;2023-09-08T11:19:54;5.88;;;4.63;;
47413;SDS011;33163;0.000;0.000;2023-09-08T11:22:22;7.15;;;4.70;;
47413;SDS011;33163;0.000;0.000;2023-09-08T11:24:50;6.32;;;4.57;;
47413;SDS011;33163;0.000;0.000;2023-09-08T11:27:18;6.78;;;5.05;;
47413;SDS011;33163;0.000;0.000;2023-09-08T11:29:45;6.30;;;4.78;;
47413;SDS011;33163;0.000;0.000;2023-09-08T11:32:12;5.82;;;4.50;;
47413;SDS011;33163;0.000;0.000;2023-09-08T11:34:39;7.20;;;4.35;;
47413;SDS011;33163;0.000;0.000;2023-09-08T11:37:09;8.00;;;4.45;;
47413;SDS011;33163;0.000;0.000;2023-09-08T11:39:38;6.75;;;4.32;;
47413;SDS011;33163;0.000;0.000;2023-09-08T11:42:05;7.78;;;4.60;;
47413;SDS011;33163;0.000;0.000;2023-09-08T11:44:33;4.88;;;4.28;;
47413;SDS011;33163;0.000;0.000;2023-09-08T11:47:01;5.93;;;4.15;;
47413;SDS011;33163;0.000;0.000;2023-09-08T11:49:33;10.70;;;4.65;;
47413;SDS011;33163;0.000;0.000;2023-09-08T11:52:00;9.43;;;4.38;;
47413;SDS011;33163;0.000;0.000;2023-09-08T11:54:30;8.35;;;4.45;;
47413;SDS011;33163;0.000;0.000;2023-09-08T11:56:58;5.68;;;4.63;;
47413;SDS011;33163;0.000;0.000;2023-09-08T11:59:26;7.43;;;4.78;;
47413;SDS011;33163;0.000;0.000;2023-09-08T12:01:55;5.57;;;4.20;;
47413;SDS011;33163;0.000;0.000;2023-09-08T12:04:22;5.50;;;4.57;;
47413;SDS011;33163;0.000;0.000;2023-09-08T12:06:48;6.65;;;4.45;;
47413;SDS011;33163;0.000;0.000;2023-09-08T12:09:17;5.32;;;4.82;;
47413;SDS011;33163;0.000;0.000;2023-09-08T12:11:45;5.78;;;4.55;;
47413;SDS011;33163;0.000;0.000;2023-09-08T12:14:13;5.85;;;4.03;;
47413;SDS011;33163;0.000;0.000;2023-09-08T12:16:40;5.57;;;4.18;;
47413;SDS011;33163;0.000;0.000;2023-09-08T12:19:08;5.05;;;4.43;;
47413;SDS011;33163;0.000;0.000;2023-09-08T12:21:54;7.10;;;4.28;;
47413;SDS011;33163;0.000;0.000;2023-09-08T12:27:15;5.60;;;3.97;;
47413;SDS011;33163;0.000;0.000;2023-09-08T12:29:51;5.97;;;4.63;;
47413;SDS011;33163;0.000;0.000;2023-09-08T12:32:19;7.00;;;4.93;;
47413;SDS011;33163;0.000;0.000;2023-09-08T12:34:46;6.28;;;4.15;;
47413;SDS011;33163;0.000;0.000;2023-09-08T12:37:13;5.72;;;4.32;;
47413;SDS011;33163;0.000;0.000;2023-09-08T12:39:39;5.88;;;4.13;;
47413;SDS011;33163;0.000;0.000;2023-09-08T12:42:06;6.97;;;4.15;;
47413;SDS011;33163;0.000;0.000;2023-09-08T12:44:34;9.32;;;4.47;;
47413;SDS011;33163;0.000;0.000;2023-09-08T12:47:01;6.38;;;3.90;;
47413;SDS011;33163;0.000;0.000;2023-09-08T12:49:28;5.75;;;4.25;;
47413;SDS011;33163;0.000;0.000;2023-09-08T12:51:54;5.57;;;4.38;;
47413;SDS011;33163;0.000;0.000;2023-09-08T12:54:21;5.57;;;4.03;;
47413;SDS011;33163;0.000;0.000;2023-09-08T12:56:48;7.70;;;4.78;;
47413;SDS011;33163;0.000;0.000;2023-09-08T12:59:16;6.95;;;4.25;;
47413;SDS011;33163;0.000;0.000;2023-09-08T13:01:44;6.38;;;4.35;;
47413;SDS011;33163;0.000;0.000;2023-09-08T13:04:10;5.53;;;4.00;;
47413;SDS011;33163;0.000;0.000;2023-09-08T13:06:37;5.55;;;4.47;;
47413;SDS011;33163;0.000;0.000;2023-09-08T13:09:04;8.50;;;4.25;;
47413;SDS011;33163;0.000;0.000;2023-09-08T13:11:32;4.63;;;3.75;;
47413;SDS011;33163;0.000;0.000;2023-09-08T13:13:59;4.70;;;4.10;;
47413;SDS011;33163;0.000;0.000;2023-09-08T13:16:25;5.60;;;3.90;;
47413;SDS011;33163;0.000;0.000;2023-09-08T13:18:54;5.03;;;4.03;;
47413;SDS011;33163;0.000;0.000;2023-09-08T13:21:20;4.90;;;4.05;;
47413;SDS011;33163;0.000;0.000;2023-09-08T13:23:47;7.03;;;4.00;;
47413;SDS011;33163;0.000;0.000;2023-09-08T13:26:14;5.22;;;4.50;;
47413;SDS011;33163;0.000;0.000;2023-09-08T13:28:41;5.60;;;4.40;;
47413;SDS011;33163;0.000;0.000;2023-09-08T13:31:08;6.22;;;4.15;;
47413;SDS011;33163;0.000;0.000;2023-09-08T13:33:34;4.60;;;4.03;;
47413;SDS011;33163;0.000;0.000;2023-09-08T13:36:03;6.45;;;3.53;;
47413;SDS011;33163;0.000;0.000;2023-09-08T13:38:30;4.13;;;3.60;;
47413;SDS011;33163;0.000;0.000;2023-09-08T13:40:56;5.65;;;4.25;;
47413;SDS011;33163;0.000;0.000;2023-09-08T13:43:23;4.88;;;4.38;;
47413;SDS011;33163;0.000;0.000;2023-09-08T13:45:50;5.15;;;4.00;;
47413;SDS011;33163;0.000;0.000;2023-09-08T13:48:17;5.80;;;4.00;;
47413;SDS011;33163;0.000;0.000;2023-09-08T13:50:44;5.95;;;3.92;;
47413;SDS011;33163;0.000;0.000;2023-09-08T13:53:12;7.03;;;4.18;;
47413;SDS011;33163;0.000;0.000;2023-09-08T13:55:38;5.53;;;4.03;;
47413;SDS011;33163;0.000;0.000;2023-09-08T13:58:05;8.20;;;4.07;;
47413;SDS011;33163;0.000;0.000;2023-09-08T14:00:32;5.85;;;3.72;;
47413;SDS011;33163;0.000;0.000;2023-09-08T14:02:59;5.13;;;4.43;;
47413;SDS011;33163;0.000;0.000;2023-09-08T14:05:25;4.50;;;4.00;;
47413;SDS011;33163;0.000;0.000;2023-09-08T14:07:52;6.40;;;4.00;;
47413;SDS011;33163;0.000;0.000;2023-09-08T14:10:20;4.30;;;3.63;;
47413;SDS011;33163;0.000;0.000;2023-09-08T14:12:47;5.53;;;3.85;;
47413;SDS011;33163;0.000;0.000;2023-09-08T14:15:14;4.65;;;3.55;;
47413;SDS011;33163;0.000;0.000;2023-09-08T14:17:41;4.80;;;4.30;;
47413;SDS011;33163;0.000;0.000;2023-09-08T14:20:08;4.90;;;4.00;;
47413;SDS011;33163;0.000;0.000;2023-09-08T14:22:36;7.25;;;3.70;;
47413;SDS011;33163;0.000;0.000;2023-09-08T14:25:03;5.60;;;4.15;;
47413;SDS011;33163;0.000;0.000;2023-09-08T14:27:32;5.22;;;4.07;;
47413;SDS011;33163;0.000;0.000;2023-09-08T14:30:00;4.10;;;3.70;;
47413;SDS011;33163;0.000;0.000;2023-09-08T14:32:28;4.00;;;3.60;;
47413;SDS011;33163;0.000;0.000;2023-09-08T14:34:55;4.43;;;3.85;;
47413;SDS011;33163;0.000;0.000;2023-09-08T14:37:22;5.60;;;3.78;;
47413;SDS011;33163;0.000;0.000;2023-09-08T14:39:49;4.43;;;4.03;;
47413;SDS011;33163;0.000;0.000;2023-09-08T14:42:16;3.85;;;3.45;;
47413;SDS011;33163;0.000;0.000;2023-09-08T14:44:44;5.10;;;3.88;;
47413;SDS011;33163;0.000;0.000;2023-09-08T14:47:10;5.70;;;3.60;;
47413;SDS011;33163;0.000;0.000;2023-09-08T14:49:37;5.57;;;3.80;;
47413;SDS011;33163;0.000;0.000;2023-09-08T14:52:04;4.18;;;3.50;;
47413;SDS011;33163;0.000;0.000;2023-09-08T14:54:31;6.70;;;4.22;;
47413;SDS011;33163;0.000;0.000;2023-09-08T14:56:58;3.55;;;3.25;;
47413;SDS011;33163;0.000;0.000;2023-09-08T14:59:25;5.18;;;3.67;;
47413;SDS011;33163;0.000;0.000;2023-09-08T15:01:53;4.97;;;3.95;;
47413;SDS011;33163;0.000;0.000;2023-09-08T15:04:20;3.85;;;3.35;;